createdAt,value
2022-08-30T00:01:29.636Z,18.50
2022-08-30T00:03:58.445Z,18.40
2022-08-30T00:06:27.137Z,18.40
2022-08-30T00:08:55.385Z,18.40
2022-08-30T00:11:25.154Z,18.20
2022-08-30T00:13:55.092Z,18.10
2022-08-30T00:16:23.328Z,18.00
2022-08-30T00:18:50.430Z,18.00
2022-08-30T00:21:21.184Z,17.90
2022-08-30T00:23:47.991Z,17.90
2022-08-30T00:26:14.914Z,17.90
2022-08-30T00:28:41.802Z,18.00
2022-08-30T00:31:08.776Z,18.00
2022-08-30T00:33:35.660Z,18.00
2022-08-30T00:36:03.322Z,18.00
2022-08-30T00:38:30.167Z,18.00
2022-08-30T00:40:57.425Z,18.00
2022-08-30T00:43:28.315Z,17.80
2022-08-30T00:45:55.937Z,17.70
2022-08-30T00:48:23.042Z,17.70
2022-08-30T00:50:54.332Z,17.70
2022-08-30T00:53:25.870Z,17.70
2022-08-30T00:55:53.945Z,17.60
2022-08-30T00:58:29.293Z,17.50
2022-08-30T01:00:58.448Z,17.60
2022-08-30T01:03:25.463Z,17.50
2022-08-30T01:05:53.432Z,17.40
2022-08-30T01:08:24.330Z,17.50
2022-08-30T01:10:52.928Z,17.40
2022-08-30T01:13:22.692Z,17.40
2022-08-30T01:15:50.729Z,17.50
2022-08-30T01:18:18.909Z,17.40
2022-08-30T01:21:10.968Z,17.50
2022-08-30T01:23:43.417Z,17.40
2022-08-30T01:26:13.039Z,17.40
2022-08-30T01:28:45.926Z,17.30
2022-08-30T01:31:12.948Z,17.30
2022-08-30T01:33:40.280Z,17.30
2022-08-30T01:36:13.397Z,17.40
2022-08-30T01:38:50.883Z,17.40
2022-08-30T01:41:24.326Z,17.40
2022-08-30T01:43:55.270Z,17.30
2022-08-30T01:46:27.944Z,17.40
2022-08-30T01:48:56.981Z,17.30
2022-08-30T01:51:28.402Z,17.30
2022-08-30T01:53:56.377Z,17.20
2022-08-30T01:56:24.977Z,17.20
2022-08-30T01:58:53.209Z,17.20
2022-08-30T02:01:23.452Z,17.20
2022-08-30T02:03:50.435Z,17.20
2022-08-30T02:06:19.936Z,17.20
2022-08-30T02:08:47.454Z,17.20
2022-08-30T02:11:14.969Z,17.20
2022-08-30T02:13:44.178Z,17.20
2022-08-30T02:16:16.127Z,17.20
2022-08-30T02:18:43.757Z,17.10
2022-08-30T02:21:12.257Z,17.20
2022-08-30T02:23:39.358Z,17.20
2022-08-30T02:26:06.607Z,17.20
2022-08-30T02:28:33.547Z,17.20
2022-08-30T02:31:00.841Z,17.30
2022-08-30T02:33:29.065Z,17.30
2022-08-30T02:35:57.315Z,17.20
2022-08-30T02:38:24.907Z,17.20
2022-08-30T02:40:52.171Z,17.10
2022-08-30T02:43:19.461Z,17.10
2022-08-30T02:45:47.657Z,17.00
2022-08-30T02:48:15.829Z,17.00
2022-08-30T02:50:45.175Z,16.90
2022-08-30T02:53:16.320Z,16.90
2022-08-30T02:55:43.661Z,16.90
2022-08-30T02:58:11.018Z,17.00
2022-08-30T03:00:39.392Z,17.00
2022-08-30T03:03:07.794Z,17.00
2022-08-30T03:05:35.197Z,16.90
2022-08-30T03:08:04.986Z,16.90
2022-08-30T03:10:31.979Z,16.80
2022-08-30T03:12:59.133Z,16.80
2022-08-30T03:15:26.027Z,16.80
2022-08-30T03:17:53.898Z,16.80
2022-08-30T03:20:22.156Z,16.80
2022-08-30T03:22:49.439Z,16.80
2022-08-30T03:25:17.288Z,16.70
2022-08-30T03:27:44.109Z,16.70
2022-08-30T03:30:12.134Z,16.70
2022-08-30T03:32:40.816Z,16.70
2022-08-30T03:35:10.911Z,16.60
2022-08-30T03:37:37.748Z,16.60
2022-08-30T03:40:07.618Z,16.60
2022-08-30T03:42:35.364Z,16.60
2022-08-30T03:45:03.748Z,16.60
2022-08-30T03:47:31.043Z,16.60
2022-08-30T03:49:58.081Z,16.60
2022-08-30T03:52:24.938Z,16.70
2022-08-30T03:54:51.790Z,16.50
2022-08-30T03:57:19.866Z,16.50
2022-08-30T03:59:47.199Z,16.40
2022-08-30T04:02:14.155Z,16.40
2022-08-30T04:04:40.967Z,16.40
2022-08-30T04:07:07.768Z,16.40
2022-08-30T04:09:34.604Z,16.40
2022-08-30T04:12:01.528Z,16.40
2022-08-30T04:14:28.487Z,16.40
2022-08-30T04:16:55.379Z,16.40
2022-08-30T04:19:22.268Z,16.40
2022-08-30T04:21:49.711Z,16.40
2022-08-30T04:24:17.028Z,16.40
2022-08-30T04:26:43.835Z,16.40
2022-08-30T04:29:12.338Z,16.40
2022-08-30T04:31:39.194Z,16.30
2022-08-30T04:34:06.063Z,16.30
2022-08-30T04:36:33.516Z,16.30
2022-08-30T04:39:01.805Z,16.20
2022-08-30T04:41:28.652Z,16.20
2022-08-30T04:43:55.846Z,16.20
2022-08-30T04:46:23.655Z,16.20
2022-08-30T04:48:50.458Z,16.10
2022-08-30T04:51:18.261Z,16.20
2022-08-30T04:53:45.395Z,16.10
2022-08-30T04:56:18.119Z,16.00
2022-08-30T04:58:47.130Z,15.80
2022-08-30T05:01:18.975Z,15.80
2022-08-30T05:03:48.640Z,15.80
2022-08-30T05:06:16.655Z,15.90
2022-08-30T05:08:46.125Z,15.70
2022-08-30T05:11:15.499Z,15.70
2022-08-30T05:13:43.125Z,15.70
2022-08-30T05:16:10.765Z,15.70
2022-08-30T05:18:37.734Z,15.70
2022-08-30T05:21:05.863Z,15.80
2022-08-30T05:23:53.873Z,15.80
2022-08-30T05:26:25.118Z,15.80
2022-08-30T05:28:52.768Z,15.80
2022-08-30T05:31:25.270Z,15.90
2022-08-30T05:33:54.377Z,16.00
2022-08-30T05:36:25.240Z,16.00
2022-08-30T05:38:53.231Z,16.00
2022-08-30T05:41:22.375Z,16.00
2022-08-30T05:43:54.684Z,15.90
2022-08-30T05:46:22.133Z,15.80
2022-08-30T05:48:49.645Z,15.90
2022-08-30T05:51:28.544Z,16.00
2022-08-30T05:53:56.865Z,16.00
2022-08-30T05:56:28.867Z,16.10
2022-08-30T05:58:55.780Z,15.90
2022-08-30T06:01:34.976Z,16.00
2022-08-30T06:04:04.346Z,16.10
2022-08-30T06:06:33.535Z,16.10
2022-08-30T06:09:01.399Z,16.20
2022-08-30T06:11:31.977Z,16.20
2022-08-30T06:14:05.552Z,16.20
2022-08-30T06:16:39.896Z,16.20
2022-08-30T06:19:11.165Z,16.30
2022-08-30T06:21:39.945Z,16.40
2022-08-30T06:24:10.529Z,16.50
2022-08-30T06:26:43.598Z,16.30
2022-08-30T06:29:13.677Z,16.40
2022-08-30T06:31:40.611Z,16.50
2022-08-30T06:34:07.565Z,16.70
2022-08-30T06:36:34.780Z,16.60
2022-08-30T06:39:01.816Z,16.70
2022-08-30T06:41:31.042Z,16.70
2022-08-30T06:44:00.497Z,16.80
2022-08-30T06:46:30.309Z,17.00
2022-08-30T06:48:57.598Z,17.10
2022-08-30T06:51:27.649Z,16.80
2022-08-30T06:53:54.870Z,16.90
2022-08-30T06:56:22.606Z,16.80
2022-08-30T06:58:50.436Z,16.80
2022-08-30T07:01:26.801Z,16.80
2022-08-30T07:03:54.089Z,16.90
2022-08-30T07:06:21.495Z,16.90
2022-08-30T07:08:50.624Z,16.90
2022-08-30T07:11:35.743Z,17.00
2022-08-30T07:14:06.887Z,16.90
2022-08-30T07:16:34.582Z,16.90
2022-08-30T07:19:03.124Z,16.90
2022-08-30T07:21:33.988Z,17.10
2022-08-30T07:24:01.041Z,17.10
2022-08-30T07:26:35.272Z,17.00
2022-08-30T07:29:02.746Z,17.00
2022-08-30T07:31:30.191Z,17.00
2022-08-30T07:33:57.619Z,17.00
2022-08-30T07:36:25.314Z,16.90
2022-08-30T07:38:52.774Z,17.00
2022-08-30T07:41:24.395Z,17.00
2022-08-30T07:43:51.682Z,17.10
2022-08-30T07:46:19.353Z,17.00
2022-08-30T07:48:46.900Z,17.10
2022-08-30T07:51:17.095Z,17.30
2022-08-30T07:53:44.198Z,17.30
2022-08-30T07:56:11.491Z,17.30
2022-08-30T07:58:38.527Z,17.50
2022-08-30T08:01:08.209Z,17.70
2022-08-30T08:03:40.520Z,17.60
2022-08-30T08:06:10.220Z,17.60
2022-08-30T08:08:38.652Z,17.90
2022-08-30T08:11:13.113Z,17.90
2022-08-30T08:13:50.636Z,17.70
2022-08-30T08:16:22.307Z,17.70
2022-08-30T08:18:49.523Z,17.70
2022-08-30T08:21:16.631Z,17.80
2022-08-30T08:23:43.785Z,17.80
2022-08-30T08:26:10.710Z,17.90
2022-08-30T08:28:37.523Z,18.00
2022-08-30T08:31:04.533Z,18.20
2022-08-30T08:33:31.461Z,18.30
2022-08-30T08:35:58.529Z,18.40
2022-08-30T08:38:25.447Z,18.40
2022-08-30T08:41:11.005Z,18.30
2022-08-30T08:43:38.588Z,18.20
2022-08-30T08:46:31.086Z,18.20
2022-08-30T08:49:04.881Z,18.10
2022-08-30T08:51:53.211Z,18.30
2022-08-30T08:54:38.759Z,18.40
2022-08-30T08:57:05.998Z,18.30
2022-08-30T08:59:32.819Z,18.40
2022-08-30T09:02:03.159Z,18.30
2022-08-30T09:04:35.192Z,18.50
2022-08-30T09:07:22.139Z,18.70
2022-08-30T09:09:49.056Z,18.80
2022-08-30T09:12:15.982Z,18.90
2022-08-30T09:14:55.619Z,18.80
2022-08-30T09:17:23.760Z,18.70
2022-08-30T09:19:53.645Z,18.60
2022-08-30T09:22:43.691Z,18.70
2022-08-30T09:25:15.683Z,18.70
2022-08-30T09:27:46.666Z,18.60
2022-08-30T09:30:27.494Z,18.70
2022-08-30T09:33:02.730Z,18.70
2022-08-30T09:35:42.781Z,18.80
2022-08-30T09:38:22.344Z,19.00
2022-08-30T09:40:58.842Z,19.20
2022-08-30T09:43:31.492Z,19.10
2022-08-30T09:46:01.388Z,19.10
2022-08-30T09:48:33.173Z,19.00
2022-08-30T09:51:11.886Z,18.90
2022-08-30T09:54:17.201Z,18.90
2022-08-30T09:57:12.556Z,18.70
2022-08-30T09:59:51.280Z,18.80
2022-08-30T10:02:48.465Z,18.90
2022-08-30T10:05:59.896Z,18.90
2022-08-30T10:08:52.999Z,19.00
2022-08-30T10:11:34.842Z,19.20
2022-08-30T10:14:29.303Z,19.20
2022-08-30T10:17:17.514Z,19.30
2022-08-30T10:19:57.110Z,19.40
2022-08-30T10:22:36.909Z,19.30
2022-08-30T10:25:09.285Z,19.30
2022-08-30T10:27:43.986Z,19.10
2022-08-30T10:30:16.663Z,19.10
2022-08-30T10:33:06.471Z,19.00
2022-08-30T10:35:41.136Z,19.00
2022-08-30T10:38:21.257Z,19.10
2022-08-30T10:41:14.059Z,19.20
2022-08-30T10:43:45.745Z,19.20
2022-08-30T10:46:29.785Z,18.90
2022-08-30T10:49:01.040Z,19.00
2022-08-30T10:51:43.425Z,19.20
2022-08-30T10:54:18.904Z,19.30
2022-08-30T10:56:49.618Z,19.20
2022-08-30T10:59:20.614Z,18.90
2022-08-30T11:02:18.606Z,19.00
2022-08-30T11:05:15.414Z,19.10
2022-08-30T11:08:01.349Z,19.00
2022-08-30T11:10:50.675Z,19.20
2022-08-30T11:13:25.553Z,19.20
2022-08-30T11:16:01.591Z,19.00
2022-08-30T11:19:02.383Z,18.80
2022-08-30T11:21:39.667Z,18.90
2022-08-30T11:24:29.138Z,18.90
2022-08-30T11:27:02.636Z,18.90
2022-08-30T11:29:40.848Z,19.00
2022-08-30T11:32:13.696Z,19.10
2022-08-30T11:34:46.693Z,19.20
2022-08-30T11:37:43.236Z,19.40
2022-08-30T11:40:49.327Z,19.50
2022-08-30T11:43:34.563Z,19.70
2022-08-30T11:46:28.503Z,19.80
2022-08-30T11:49:15.653Z,19.70
2022-08-30T11:55:03.677Z,19.60
2022-08-30T11:58:00.067Z,19.80
2022-08-30T12:00:34.971Z,19.90
2022-08-30T12:03:06.244Z,19.90
2022-08-30T12:05:38.194Z,20.10
2022-08-30T12:08:24.331Z,20.30
2022-08-30T12:11:00.085Z,20.20
2022-08-30T12:13:42.440Z,20.20
2022-08-30T12:16:14.457Z,20.20
2022-08-30T12:18:44.534Z,20.10
2022-08-30T12:21:45.265Z,20.10
2022-08-30T12:24:26.335Z,20.00
2022-08-30T12:26:55.137Z,19.90
2022-08-30T12:29:24.903Z,19.90
2022-08-30T12:31:53.614Z,20.00
2022-08-30T12:34:25.683Z,20.10
2022-08-30T12:36:58.433Z,20.20
2022-08-30T12:39:44.520Z,20.20
2022-08-30T12:42:24.566Z,20.20
2022-08-30T12:44:58.013Z,20.10
2022-08-30T12:47:31.035Z,20.10
2022-08-30T12:49:59.009Z,20.30
2022-08-30T12:52:40.032Z,20.30
2022-08-30T12:55:19.750Z,20.30
2022-08-30T12:58:00.809Z,20.20
2022-08-30T13:00:35.300Z,20.20
2022-08-30T13:03:30.089Z,20.20
2022-08-30T13:05:58.045Z,20.30
2022-08-30T13:08:38.981Z,20.30
2022-08-30T13:11:11.926Z,20.30
2022-08-30T13:13:45.131Z,20.20
2022-08-30T13:16:36.006Z,20.00
2022-08-30T13:19:34.428Z,20.10
2022-08-30T13:22:03.158Z,19.90
2022-08-30T13:24:30.336Z,19.90
2022-08-30T13:27:04.137Z,19.80
2022-08-30T13:29:31.975Z,19.80
2022-08-30T13:31:58.819Z,19.80
2022-08-30T13:34:25.839Z,19.90
2022-08-30T13:36:58.008Z,19.80
2022-08-30T13:39:25.397Z,19.80
2022-08-30T13:41:52.518Z,19.90
2022-08-30T13:44:19.578Z,20.00
2022-08-30T13:46:54.450Z,19.90
2022-08-30T13:49:44.329Z,19.60
2022-08-30T13:52:22.571Z,19.70
2022-08-30T13:54:55.392Z,19.80
2022-08-30T14:00:19.985Z,19.70
2022-08-30T14:02:54.646Z,19.70
2022-08-30T14:11:57.148Z,19.70
2022-08-30T14:14:39.254Z,19.80
2022-08-30T14:17:09.646Z,19.70
2022-08-30T14:19:36.596Z,19.60
2022-08-30T14:22:03.592Z,19.70
2022-08-30T14:24:30.483Z,19.80
2022-08-30T14:26:57.308Z,19.80
2022-08-30T14:29:26.305Z,19.90
2022-08-30T14:31:56.139Z,19.90
2022-08-30T14:34:28.783Z,20.00
2022-08-30T14:36:56.406Z,20.10
2022-08-30T14:39:23.316Z,20.10
2022-08-30T14:41:53.213Z,20.00
2022-08-30T14:44:21.891Z,20.10
2022-08-30T14:46:49.211Z,20.20
2022-08-30T14:49:18.499Z,20.20
2022-08-30T14:51:48.590Z,20.10
2022-08-30T14:54:21.148Z,20.00
2022-08-30T14:56:48.188Z,20.00
2022-08-30T14:59:16.388Z,20.00
2022-08-30T15:01:44.366Z,20.10
2022-08-30T15:04:14.283Z,19.90
2022-08-30T15:06:43.682Z,19.60
2022-08-30T15:09:15.118Z,19.60
2022-08-30T15:11:43.604Z,19.30
2022-08-30T15:14:15.844Z,19.20
2022-08-30T15:16:43.770Z,19.30
2022-08-30T15:19:11.852Z,19.40
2022-08-30T15:21:47.694Z,19.30
2022-08-30T15:24:19.091Z,19.20
2022-08-30T15:26:51.670Z,19.20
2022-08-30T15:29:20.084Z,19.10
2022-08-30T15:31:51.149Z,19.20
2022-08-30T15:34:21.192Z,19.10
2022-08-30T15:36:53.247Z,19.20
2022-08-30T15:39:20.388Z,19.10
2022-08-30T15:41:55.761Z,19.00
2022-08-30T15:44:25.638Z,19.00
2022-08-30T15:46:52.633Z,19.10
2022-08-30T15:49:22.387Z,19.10
2022-08-30T15:51:54.000Z,19.10
2022-08-30T15:54:23.745Z,19.00
2022-08-30T15:56:59.070Z,18.90
2022-08-30T15:59:27.825Z,18.90
2022-08-30T16:01:54.975Z,18.80
2022-08-30T16:04:24.412Z,18.80
2022-08-30T16:06:53.134Z,18.80
2022-08-30T16:09:20.107Z,18.80
2022-08-30T16:11:47.969Z,18.90
2022-08-30T16:14:15.086Z,18.90
2022-08-30T16:16:42.295Z,19.00
2022-08-30T16:19:09.676Z,19.00
2022-08-30T16:21:37.919Z,19.10
2022-08-30T16:24:13.660Z,19.00
2022-08-30T16:26:42.862Z,19.00
2022-08-30T16:29:10.876Z,19.00
2022-08-30T16:31:38.425Z,19.10
2022-08-30T16:34:06.697Z,19.20
2022-08-30T16:36:35.960Z,19.10
2022-08-30T16:39:06.026Z,19.20
2022-08-30T16:41:36.457Z,19.10
2022-08-30T16:44:03.822Z,19.10
2022-08-30T16:46:33.329Z,19.10
2022-08-30T16:49:05.256Z,19.10
2022-08-30T16:51:34.871Z,19.00
2022-08-30T16:54:07.706Z,19.10
2022-08-30T16:56:36.022Z,19.00
2022-08-30T16:59:05.300Z,19.10
2022-08-30T17:01:37.511Z,19.10
2022-08-30T17:04:08.338Z,19.10
2022-08-30T17:06:36.010Z,19.00
2022-08-30T17:09:07.180Z,19.00
2022-08-30T17:11:35.891Z,19.00
2022-08-30T17:14:03.511Z,19.00
2022-08-30T17:16:30.670Z,19.10
2022-08-30T17:18:59.863Z,19.10
2022-08-30T17:21:29.562Z,19.10
2022-08-30T17:24:01.627Z,19.10
2022-08-30T17:26:31.637Z,19.10
2022-08-30T17:28:58.664Z,19.00
2022-08-30T17:31:29.091Z,19.00
2022-08-30T17:34:04.224Z,19.10
2022-08-30T17:36:35.477Z,19.10
2022-08-30T17:39:10.673Z,19.10
2022-08-30T17:41:49.964Z,19.00
2022-08-30T17:44:19.831Z,19.00
2022-08-30T17:46:46.861Z,19.00
2022-08-30T17:49:13.947Z,19.00
2022-08-30T17:51:43.021Z,19.00
2022-08-30T17:54:12.722Z,18.90
2022-08-30T17:56:41.393Z,18.80
2022-08-30T17:59:10.794Z,18.70
2022-08-30T18:01:38.227Z,18.70
2022-08-30T18:04:05.982Z,18.60
2022-08-30T18:06:34.382Z,18.60
2022-08-30T18:09:02.702Z,18.60
2022-08-30T18:11:29.768Z,18.60
2022-08-30T18:13:59.296Z,18.50
2022-08-30T18:16:26.681Z,18.40
2022-08-30T18:18:57.279Z,18.40
2022-08-30T18:21:25.178Z,18.40
2022-08-30T18:23:52.426Z,18.30
2022-08-30T18:26:19.444Z,18.30
2022-08-30T18:28:51.555Z,18.30
2022-08-30T18:31:18.623Z,18.30
2022-08-30T18:33:47.675Z,18.30
2022-08-30T18:36:14.695Z,18.40
2022-08-30T18:38:42.912Z,18.30
2022-08-30T18:41:14.014Z,18.20
2022-08-30T18:43:42.423Z,18.20
2022-08-30T18:46:13.429Z,18.20
2022-08-30T18:48:41.958Z,18.10
2022-08-30T18:51:21.003Z,18.00
2022-08-30T18:53:49.503Z,18.10
2022-08-30T18:56:16.901Z,18.00
2022-08-30T18:58:45.970Z,17.90
2022-08-30T19:01:13.224Z,17.80
2022-08-30T19:03:41.856Z,17.80
2022-08-30T19:06:11.566Z,17.80
2022-08-30T19:08:45.818Z,17.80
2022-08-30T19:11:13.486Z,17.80
2022-08-30T19:13:40.442Z,17.80
2022-08-30T19:16:08.928Z,17.70
2022-08-30T19:18:39.685Z,17.70
2022-08-30T19:21:06.785Z,17.70
2022-08-30T19:23:42.752Z,17.70
2022-08-30T19:26:10.879Z,17.60
2022-08-30T19:28:38.824Z,17.70
2022-08-30T19:31:06.600Z,17.70
2022-08-30T19:33:34.657Z,17.60
2022-08-30T19:36:02.500Z,17.60
2022-08-30T19:38:29.368Z,17.60
2022-08-30T19:41:00.613Z,17.70
2022-08-30T19:43:28.554Z,17.70
2022-08-30T19:45:59.910Z,17.60
2022-08-30T19:48:32.779Z,17.70
2022-08-30T19:51:06.623Z,17.60
2022-08-30T19:53:34.610Z,17.60
2022-08-30T19:56:01.599Z,17.60
2022-08-30T19:58:30.320Z,17.60
2022-08-30T20:01:10.762Z,17.60
2022-08-30T20:03:40.049Z,17.70
2022-08-30T20:06:08.166Z,17.70
2022-08-30T20:08:36.254Z,17.60
2022-08-30T20:11:04.401Z,17.60
2022-08-30T20:13:33.925Z,17.60
2022-08-30T20:16:01.919Z,17.60
2022-08-30T20:18:29.565Z,17.70
2022-08-30T20:20:56.653Z,17.70
2022-08-30T20:23:25.438Z,17.70
2022-08-30T20:25:54.774Z,17.70
2022-08-30T20:28:21.926Z,17.70
2022-08-30T20:30:49.883Z,17.60
2022-08-30T20:33:18.429Z,17.60
2022-08-30T20:35:48.968Z,17.60
2022-08-30T20:38:23.842Z,17.60
2022-08-30T20:40:56.850Z,17.60
2022-08-30T20:43:26.909Z,17.50
2022-08-30T20:45:55.495Z,17.60
2022-08-30T20:48:23.622Z,17.50
2022-08-30T20:50:50.527Z,17.60
2022-08-30T20:53:17.987Z,17.60
2022-08-30T20:55:47.140Z,17.50
2022-08-30T20:58:15.228Z,17.40
2022-08-30T21:00:45.664Z,17.40
2022-08-30T21:03:26.198Z,17.50
2022-08-30T21:05:55.423Z,17.50
2022-08-30T21:08:22.406Z,17.50
2022-08-30T21:10:49.763Z,17.50
2022-08-30T21:13:17.292Z,17.50
2022-08-30T21:15:47.118Z,17.50
2022-08-30T21:18:15.100Z,17.50
2022-08-30T21:20:42.168Z,17.40
2022-08-30T21:23:09.582Z,17.40
2022-08-30T21:25:41.899Z,17.40
2022-08-30T21:28:09.279Z,17.40
2022-08-30T21:30:37.702Z,17.40
2022-08-30T21:33:06.600Z,17.40
2022-08-30T21:35:52.466Z,17.40
2022-08-30T21:38:20.194Z,17.40
2022-08-30T21:40:48.771Z,17.30
2022-08-30T21:43:16.209Z,17.30
2022-08-30T21:45:44.625Z,17.40
2022-08-30T21:48:13.059Z,17.40
2022-08-30T21:50:42.203Z,17.40
2022-08-30T21:53:09.884Z,17.40
2022-08-30T21:55:37.027Z,17.50
2022-08-30T21:58:04.379Z,17.50
2022-08-30T22:00:32.027Z,17.50
2022-08-30T22:02:58.987Z,17.30
2022-08-30T22:05:26.077Z,17.40
2022-08-30T22:07:53.127Z,17.40
2022-08-30T22:10:22.306Z,17.40
2022-08-30T22:12:52.022Z,17.50
2022-08-30T22:15:19.307Z,17.40
2022-08-30T22:17:46.758Z,17.40
2022-08-30T22:20:18.424Z,17.40
2022-08-30T22:22:45.871Z,17.50
2022-08-30T22:25:13.162Z,17.50
2022-08-30T22:27:40.406Z,17.40
2022-08-30T22:30:08.273Z,17.50
2022-08-30T22:32:38.251Z,17.50
2022-08-30T22:35:06.134Z,17.50
2022-08-30T22:37:34.226Z,17.50
2022-08-30T22:40:01.601Z,17.50
2022-08-30T22:42:29.480Z,17.60
2022-08-30T22:44:57.498Z,17.60
2022-08-30T22:47:24.874Z,17.70
2022-08-30T22:49:52.781Z,17.60
2022-08-30T22:52:22.114Z,17.60
2022-08-30T22:54:52.737Z,17.30
2022-08-30T22:57:20.083Z,17.30
2022-08-30T22:59:47.293Z,17.40
2022-08-30T23:02:14.481Z,17.30
2022-08-30T23:04:41.562Z,17.30
2022-08-30T23:07:08.703Z,17.30
2022-08-30T23:09:35.662Z,17.30
2022-08-30T23:12:02.706Z,17.30
2022-08-30T23:14:29.838Z,17.20
2022-08-30T23:16:56.749Z,17.20
2022-08-30T23:19:24.330Z,17.20
2022-08-30T23:21:51.266Z,17.10
2022-08-30T23:24:36.740Z,17.20
2022-08-30T23:27:22.999Z,17.20
2022-08-30T23:30:08.392Z,17.20
2022-08-30T23:32:54.125Z,17.10
2022-08-30T23:35:39.421Z,17.10
2022-08-30T23:38:26.384Z,17.10
2022-08-30T23:41:11.790Z,17.00
2022-08-30T23:43:57.275Z,17.00
2022-08-30T23:46:42.881Z,16.90
2022-08-30T23:49:28.522Z,17.00
2022-08-30T23:52:14.040Z,16.90
2022-08-30T23:54:59.708Z,16.90
2022-08-30T23:57:45.711Z,16.90
